»·PEaware :: ASA1614 KONT-KLAS

ASA1614 :: KONT-KLAS

FLIGHT INFORMATION

Flight Status: Arrived
Operator:
Alaska Airlines
More flights by this operator :: More flights under this callsign
Pilot: Alexey E. (25402)
Aircraft: AIRBUS A319
(A319)
More flights by this aircraft type
Origin: KONT Ontario Intl
United States
Destination: KLAS McCarran Intl
United States
More flights between these airports :: More routes between these airports
Route: +POM1 DAG CLARR3
File this flight plan on PilotEdge
Remarks: RMK / SIMBRIEF
Altitude:
(Current/Filed)
33,000ft
Speed:
(Current/Filed)
461kts
Departed: 19-Jul-19 11:24 AM
Arrived: 19-Jul-19 12:06 PM
Distance/Time
Traveled:
171nm/0:42
Distance/Time
To Go:
Arrived

Flight Plot

Page will automatically refresh every two minutes.

Flight plan parsing failed; only flown route is shown


Map Options




Map Legend


Flown Route
Filed Route
Departure Airport
Arrival Airport
Navaid (VOR, NDB)
Fix

Horizontal Profiles

Position Reports

Time Latitude Longitude Heading Altitude Ground
Speed
19-Jul-19 11:09 34.059673 -117.586935 359 948ft 0kts
19-Jul-19 11:10 34.059673 -117.586935 359 948ft 0kts
19-Jul-19 11:11 34.059673 -117.586935 359 948ft 0kts
19-Jul-19 11:11 34.059673 -117.586935 359 948ft 0kts
19-Jul-19 11:13 34.059673 -117.586935 359 948ft 0kts
19-Jul-19 11:14 34.059274 -117.586938 0 946ft 0kts
19-Jul-19 11:14 34.059274 -117.586938 0 946ft 0kts
19-Jul-19 11:15 34.059274 -117.586938 0 946ft 0kts
19-Jul-19 11:17 34.059271 -117.586938 0 946ft 0kts
19-Jul-19 11:17 34.059271 -117.586938 0 946ft 0kts
19-Jul-19 11:18 34.059271 -117.586938 0 946ft 0kts
19-Jul-19 11:19 34.059271 -117.586938 0 946ft 0kts
19-Jul-19 11:20 34.059014 -117.585239 89 947ft 14kts
19-Jul-19 11:21 34.057970 -117.582545 179 944ft 3kts
19-Jul-19 11:22 34.057891 -117.582545 180 944ft 2kts
19-Jul-19 11:23 34.056917 -117.592094 269 935ft 115kts
19-Jul-19 11:24 34.056867 -117.649258 269 3041ft 192kts
19-Jul-19 11:25 34.056904 -117.726375 268 5519ft 269kts
19-Jul-19 11:26 34.094259 -117.806406 314 9289ft 294kts
19-Jul-19 11:27 34.156308 -117.878103 313 12502ft 324kts
19-Jul-19 11:28 34.222910 -117.955710 314 15422ft 339kts
19-Jul-19 11:29 34.307014 -117.999577 15 18234ft 363kts
19-Jul-19 11:30 34.370386 -117.907247 62 20736ft 376kts
19-Jul-19 11:31 34.421133 -117.794180 61 22992ft 387kts
19-Jul-19 11:32 34.473618 -117.678514 61 24991ft 398kts
19-Jul-19 11:33 34.527504 -117.559168 61 26746ft 409kts
19-Jul-19 11:34 34.582557 -117.436735 62 28339ft 420kts
19-Jul-19 11:35 34.639187 -117.310201 63 29778ft 429kts
19-Jul-19 11:37 34.706353 -117.159285 63 31279ft 439kts
19-Jul-19 11:37 34.755510 -117.048630 63 32224ft 446kts
19-Jul-19 11:38 34.815090 -116.914089 63 33010ft 453kts
19-Jul-19 11:39 34.874658 -116.779064 63 32998ft 453kts
19-Jul-19 11:40 34.933989 -116.643963 63 32984ft 453kts
19-Jul-19 11:41 35.007742 -116.520816 47 31967ft 448kts
19-Jul-19 11:42 35.095315 -116.413189 46 29008ft 440kts
19-Jul-19 11:43 35.176809 -116.311827 47 25990ft 406kts
19-Jul-19 11:44 35.253710 -116.215101 46 23985ft 393kts
19-Jul-19 11:45 35.330051 -116.119043 46 23978ft 393kts
19-Jul-19 11:46 35.405619 -116.023675 46 22658ft 385kts
19-Jul-19 11:47 35.479416 -115.930242 46 20644ft 377kts
19-Jul-19 11:48 35.551688 -115.838480 46 18671ft 368kts
19-Jul-19 11:49 35.621956 -115.749010 46 16762ft 359kts
19-Jul-19 11:50 35.689543 -115.662756 46 15403ft 335kts
19-Jul-19 11:51 35.754886 -115.583665 28 13758ft 328kts
19-Jul-19 11:52 35.842125 -115.575744 358 13001ft 305kts
19-Jul-19 11:53 35.928647 -115.576017 358 11166ft 316kts
19-Jul-19 11:54 36.015814 -115.568182 30 11006ft 317kts
19-Jul-19 11:55 36.038448 -115.473046 98 11008ft 306kts
19-Jul-19 11:56 36.030696 -115.368547 97 10266ft 303kts
19-Jul-19 11:57 36.023787 -115.265721 98 8659ft 297kts
19-Jul-19 11:58 36.016946 -115.165143 98 8006ft 294kts
19-Jul-19 11:59 36.009996 -115.064448 98 8004ft 291kts
19-Jul-19 12:00 36.003102 -114.965731 97 6582ft 285kts
19-Jul-19 12:01 36.053689 -114.920339 325 5631ft 263kts
19-Jul-19 12:02 36.074254 -114.990774 262 4631ft 229kts
19-Jul-19 12:03 36.074507 -115.067565 266 2868ft 199kts
19-Jul-19 12:04 36.073657 -115.122888 264 2066ft 144kts
19-Jul-19 12:05 36.074671 -115.145858 298 2106ft 0kts
19-Jul-19 12:06 36.075121 -115.146490 336 2108ft 10kts

Navigation Log

Ident Type
Flight plan parsing failed, navigation log unavailable